createdAt,value
2023-01-17T00:01:11.690Z,17.85
2023-01-17T00:03:58.267Z,19.55
2023-01-17T00:09:30.099Z,22.38
2023-01-17T00:11:57.526Z,19.52
2023-01-17T00:14:24.133Z,19.45
2023-01-17T00:16:50.627Z,22.67
2023-01-17T00:19:35.465Z,27.13
2023-01-17T00:22:20.596Z,18.55
2023-01-17T00:25:05.867Z,16.73
2023-01-17T00:27:32.341Z,21.90
2023-01-17T00:29:58.859Z,26.73
2023-01-17T00:32:25.311Z,30.35
2023-01-17T00:34:51.774Z,21.95
2023-01-17T00:37:18.301Z,16.95
2023-01-17T00:39:44.748Z,17.30
2023-01-17T00:42:11.201Z,31.90
2023-01-17T00:44:56.157Z,33.90
2023-01-17T00:47:41.372Z,12.95
2023-01-17T00:50:26.711Z,25.13
2023-01-17T00:53:11.715Z,23.98
2023-01-17T00:55:56.656Z,28.23
2023-01-17T00:58:41.813Z,24.23
2023-01-17T01:01:27.066Z,34.50
2023-01-17T01:04:12.313Z,27.65
2023-01-17T01:06:57.565Z,20.40
2023-01-17T01:09:42.321Z,25.40
2023-01-17T01:12:27.449Z,21.60
2023-01-17T01:15:12.450Z,21.95
2023-01-17T01:17:57.357Z,30.75
2023-01-17T01:20:42.608Z,17.75
2023-01-17T01:23:27.601Z,20.75
2023-01-17T01:26:12.891Z,19.00
2023-01-17T01:28:57.720Z,9.27
2023-01-17T01:31:42.977Z,18.30
2023-01-17T01:34:09.581Z,18.88
2023-01-17T01:36:36.169Z,13.93
2023-01-17T01:39:02.741Z,17.95
2023-01-17T01:41:29.256Z,19.95
2023-01-17T01:43:56.116Z,14.48
2023-01-17T01:46:30.263Z,20.52
2023-01-17T01:49:01.725Z,13.73
2023-01-17T01:51:42.363Z,22.50
2023-01-17T01:54:19.420Z,16.13
2023-01-17T01:56:48.654Z,16.05
2023-01-17T01:59:18.049Z,12.68
2023-01-17T02:01:44.851Z,16.42
2023-01-17T02:04:12.827Z,11.70
2023-01-17T02:06:48.015Z,14.13
2023-01-17T02:09:17.303Z,9.68
2023-01-17T02:11:46.032Z,10.07
2023-01-17T02:14:17.505Z,9.60
2023-01-17T02:16:50.308Z,10.38
2023-01-17T02:19:34.849Z,7.95
2023-01-17T02:22:41.856Z,7.57
2023-01-17T02:25:37.638Z,7.85
2023-01-17T02:28:27.187Z,5.53
2023-01-17T02:31:04.490Z,4.28
2023-01-17T02:33:48.953Z,5.05
2023-01-17T02:36:26.001Z,5.53
2023-01-17T02:39:04.816Z,5.40
2023-01-17T02:41:36.906Z,4.30
2023-01-17T02:44:03.912Z,4.75
2023-01-17T02:46:30.990Z,4.38
2023-01-17T02:48:57.917Z,4.25
2023-01-17T02:51:33.427Z,4.43
2023-01-17T02:54:18.535Z,5.47
2023-01-17T02:57:01.284Z,5.32
2023-01-17T02:59:49.071Z,4.60
2023-01-17T03:02:33.949Z,4.28
2023-01-17T03:05:06.651Z,4.43
2023-01-17T03:07:34.336Z,3.97
2023-01-17T03:10:05.547Z,4.40
2023-01-17T03:12:34.526Z,3.20
2023-01-17T03:15:01.194Z,3.95
2023-01-17T03:17:32.561Z,4.80
2023-01-17T03:19:59.172Z,4.15
2023-01-17T03:22:25.729Z,4.50
2023-01-17T03:24:52.261Z,5.10
2023-01-17T03:27:18.769Z,4.38
2023-01-17T03:29:45.268Z,3.35
2023-01-17T03:32:11.818Z,3.95
2023-01-17T03:34:38.351Z,3.58
2023-01-17T03:37:04.860Z,3.88
2023-01-17T03:39:31.361Z,3.53
2023-01-17T03:41:57.892Z,3.63
2023-01-17T03:44:24.405Z,3.45
2023-01-17T03:46:50.921Z,3.63
2023-01-17T03:49:17.486Z,3.88
2023-01-17T03:51:44.080Z,3.90
2023-01-17T03:54:10.622Z,3.55
2023-01-17T03:56:37.117Z,4.43
2023-01-17T03:59:03.715Z,4.50
2023-01-17T04:01:30.337Z,3.67
2023-01-17T04:03:56.953Z,4.78
2023-01-17T04:06:23.609Z,4.82
2023-01-17T04:08:50.124Z,3.80
2023-01-17T04:11:16.651Z,4.78
2023-01-17T04:13:43.130Z,5.35
2023-01-17T04:16:14.983Z,4.43
2023-01-17T04:18:41.684Z,4.97
2023-01-17T04:21:08.332Z,5.30
2023-01-17T04:23:35.087Z,7.80
2023-01-17T04:26:03.679Z,4.30
2023-01-17T04:28:30.346Z,5.40
2023-01-17T04:31:00.626Z,5.18
2023-01-17T04:33:27.241Z,7.40
2023-01-17T04:35:54.391Z,5.60
2023-01-17T04:38:21.736Z,4.55
2023-01-17T04:40:48.799Z,6.30
2023-01-17T04:43:16.258Z,5.05
2023-01-17T04:45:43.347Z,5.20
2023-01-17T04:48:12.697Z,5.13
2023-01-17T04:50:39.928Z,5.40
2023-01-17T04:53:06.479Z,3.95
2023-01-17T04:55:33.031Z,3.80
2023-01-17T04:57:59.583Z,5.35
2023-01-17T05:00:26.107Z,5.53
2023-01-17T05:02:52.631Z,5.78
2023-01-17T05:05:19.156Z,3.92
2023-01-17T05:07:53.593Z,5.05
2023-01-17T05:10:20.257Z,6.05
2023-01-17T05:12:57.049Z,5.28
2023-01-17T05:15:24.433Z,3.85
2023-01-17T05:17:52.580Z,5.20
2023-01-17T05:20:20.762Z,3.38
2023-01-17T05:22:56.178Z,4.40
2023-01-17T05:25:24.354Z,4.78
2023-01-17T05:27:51.415Z,4.68
2023-01-17T05:30:18.955Z,5.00
2023-01-17T05:32:51.923Z,3.72
2023-01-17T05:35:20.529Z,4.53
2023-01-17T05:37:49.317Z,5.18
2023-01-17T05:40:20.448Z,4.00
2023-01-17T05:42:51.606Z,3.33
2023-01-17T05:45:20.038Z,2.92
2023-01-17T05:47:48.171Z,4.25
2023-01-17T05:50:18.478Z,3.08
2023-01-17T05:52:59.736Z,4.22
2023-01-17T05:55:28.227Z,3.90
2023-01-17T05:57:55.414Z,4.00
2023-01-17T06:00:22.917Z,4.28
2023-01-17T06:02:50.010Z,3.65
2023-01-17T06:05:17.201Z,3.45
2023-01-17T06:07:45.571Z,3.55
2023-01-17T06:10:16.096Z,3.45
2023-01-17T06:12:43.966Z,3.42
2023-01-17T06:15:11.879Z,2.85
2023-01-17T06:17:38.467Z,3.30
2023-01-17T06:20:06.781Z,3.67
2023-01-17T06:22:33.490Z,3.00
2023-01-17T06:25:00.166Z,3.38
2023-01-17T06:27:27.188Z,3.03
2023-01-17T06:29:53.711Z,2.70
2023-01-17T06:32:20.511Z,3.45
2023-01-17T06:34:47.003Z,2.40
2023-01-17T06:37:13.510Z,2.30
2023-01-17T06:39:39.955Z,4.25
2023-01-17T06:42:06.528Z,3.17
2023-01-17T06:44:33.075Z,3.80
2023-01-17T06:46:59.645Z,4.05
2023-01-17T06:49:26.191Z,3.40
2023-01-17T06:51:52.733Z,3.33
2023-01-17T06:54:19.605Z,3.00
2023-01-17T06:56:46.160Z,3.05
2023-01-17T06:59:12.644Z,4.15
2023-01-17T07:01:40.343Z,3.95
2023-01-17T07:04:07.197Z,3.45
2023-01-17T07:06:36.071Z,3.85
2023-01-17T07:09:04.284Z,3.85
2023-01-17T07:11:31.401Z,3.63
2023-01-17T07:13:57.946Z,3.63
2023-01-17T07:16:24.502Z,3.70
2023-01-17T07:18:51.896Z,3.78
2023-01-17T07:21:18.711Z,3.28
2023-01-17T07:23:45.307Z,3.67
2023-01-17T07:26:11.831Z,2.95
2023-01-17T07:28:38.325Z,3.90
2023-01-17T07:31:08.362Z,3.20
2023-01-17T07:33:35.419Z,3.25
2023-01-17T07:36:07.536Z,3.22
2023-01-17T07:38:34.856Z,3.08
2023-01-17T07:41:01.888Z,2.80
2023-01-17T07:43:28.567Z,3.17
2023-01-17T07:45:55.391Z,3.13
2023-01-17T07:48:24.099Z,2.67
2023-01-17T07:50:55.997Z,3.20
2023-01-17T07:53:28.424Z,3.00
2023-01-17T07:55:55.539Z,3.08
2023-01-17T07:58:22.374Z,3.33
2023-01-17T08:00:48.950Z,3.00
2023-01-17T08:03:17.873Z,2.60
2023-01-17T08:05:53.720Z,3.25
2023-01-17T08:08:20.266Z,3.08
2023-01-17T08:10:47.200Z,3.33
2023-01-17T08:13:13.726Z,2.88
2023-01-17T08:15:40.245Z,3.40
2023-01-17T08:18:06.757Z,2.83
2023-01-17T08:20:33.298Z,3.45
2023-01-17T08:22:59.889Z,3.22
2023-01-17T08:25:26.902Z,3.25
2023-01-17T08:27:57.633Z,3.10
2023-01-17T08:30:24.855Z,2.92
2023-01-17T08:32:51.454Z,3.20
2023-01-17T08:35:19.956Z,3.60
2023-01-17T08:37:47.479Z,3.03
2023-01-17T08:40:19.610Z,2.85
2023-01-17T08:42:54.879Z,3.50
2023-01-17T08:45:21.422Z,2.83
2023-01-17T08:47:48.005Z,3.25
2023-01-17T08:50:14.596Z,3.03
2023-01-17T08:52:41.150Z,3.08
2023-01-17T08:55:10.241Z,3.08
2023-01-17T08:57:36.796Z,3.03
2023-01-17T09:00:04.059Z,3.00
2023-01-17T09:02:30.598Z,3.92
2023-01-17T09:04:57.088Z,2.88
2023-01-17T09:07:24.475Z,3.05
2023-01-17T09:09:52.766Z,3.20
2023-01-17T09:12:20.305Z,3.20
2023-01-17T09:14:46.846Z,3.30
2023-01-17T09:17:14.615Z,3.15
2023-01-17T09:19:47.516Z,2.90
2023-01-17T09:22:14.331Z,2.78
2023-01-17T09:24:41.441Z,3.35
2023-01-17T09:27:07.986Z,2.95
2023-01-17T09:29:34.553Z,2.95
2023-01-17T09:32:01.875Z,3.53
2023-01-17T09:34:28.579Z,2.90
2023-01-17T09:36:56.972Z,3.00
2023-01-17T09:39:23.617Z,2.80
2023-01-17T09:42:34.975Z,3.28
2023-01-17T09:45:02.181Z,2.95
2023-01-17T09:47:36.125Z,3.22
2023-01-17T09:50:38.085Z,3.17
2023-01-17T09:53:14.034Z,3.05
2023-01-17T09:55:49.228Z,2.70
2023-01-17T09:58:21.681Z,3.05
2023-01-17T10:01:12.463Z,3.10
2023-01-17T10:03:44.955Z,2.40
2023-01-17T10:06:49.396Z,2.30
2023-01-17T10:09:37.672Z,2.20
2023-01-17T10:12:46.789Z,2.30
2023-01-17T10:15:34.761Z,2.65
2023-01-17T10:18:07.569Z,2.20
2023-01-17T10:21:12.472Z,2.20
2023-01-17T10:24:03.988Z,2.13
2023-01-17T10:26:32.623Z,2.15
2023-01-17T10:29:04.314Z,2.28
2023-01-17T10:31:55.800Z,2.00
2023-01-17T10:34:28.383Z,2.22
2023-01-17T10:37:16.939Z,2.20
2023-01-17T10:39:46.561Z,1.83
2023-01-17T10:42:23.283Z,1.85
2023-01-17T10:44:59.217Z,2.13
2023-01-17T10:47:29.297Z,2.28
2023-01-17T10:49:59.532Z,2.00
2023-01-17T10:52:54.014Z,2.60
2023-01-17T10:55:40.337Z,2.30
2023-01-17T10:58:12.592Z,2.35
2023-01-17T11:00:50.061Z,2.08
2023-01-17T11:03:20.878Z,2.20
2023-01-17T11:06:27.609Z,2.00
2023-01-17T11:08:55.653Z,2.27
2023-01-17T11:11:33.625Z,2.20
2023-01-17T11:14:16.206Z,2.20
2023-01-17T11:16:43.486Z,2.20
2023-01-17T11:19:21.414Z,2.50
2023-01-17T11:21:54.671Z,2.33
2023-01-17T11:24:29.920Z,2.45
2023-01-17T11:26:58.037Z,1.93
2023-01-17T11:29:27.482Z,2.28
2023-01-17T11:31:56.278Z,2.15
2023-01-17T11:34:29.524Z,2.50
2023-01-17T11:37:14.827Z,2.70
2023-01-17T11:39:42.991Z,2.60
2023-01-17T11:42:33.686Z,2.13
2023-01-17T11:45:23.803Z,2.50
2023-01-17T11:48:12.826Z,2.60
2023-01-17T11:50:45.413Z,2.58
2023-01-17T11:53:25.913Z,2.50
2023-01-17T11:56:08.983Z,2.67
2023-01-17T11:58:41.541Z,2.05
2023-01-17T12:01:41.474Z,2.30
2023-01-17T12:04:24.945Z,2.63
2023-01-17T12:07:07.870Z,2.35
2023-01-17T12:09:44.904Z,2.28
2023-01-17T12:12:54.622Z,2.60
2023-01-17T12:15:40.309Z,2.95
2023-01-17T12:18:22.028Z,2.43
2023-01-17T12:21:14.597Z,2.95
2023-01-17T12:23:57.955Z,3.33
2023-01-17T12:26:45.498Z,2.60
2023-01-17T12:29:30.104Z,2.85
2023-01-17T12:31:56.542Z,2.47
2023-01-17T12:34:40.327Z,2.70
2023-01-17T12:37:24.711Z,2.47
2023-01-17T12:39:57.944Z,2.50
2023-01-17T12:42:31.746Z,2.63
2023-01-17T12:45:15.141Z,2.30
2023-01-17T12:47:46.853Z,2.38
2023-01-17T12:50:26.994Z,2.53
2023-01-17T12:53:03.055Z,2.25
2023-01-17T12:56:06.059Z,2.20
2023-01-17T12:58:49.037Z,2.30
2023-01-17T13:01:31.866Z,2.30
2023-01-17T13:04:19.429Z,2.40
2023-01-17T13:06:56.610Z,2.53
2023-01-17T13:09:23.883Z,2.60
2023-01-17T13:12:14.211Z,2.22
2023-01-17T13:14:40.915Z,2.42
2023-01-17T13:17:39.043Z,2.70
2023-01-17T13:20:32.020Z,2.83
2023-01-17T13:23:12.429Z,2.20
2023-01-17T13:25:48.926Z,2.40
2023-01-17T13:28:39.788Z,2.42
2023-01-17T13:31:41.930Z,2.47
2023-01-17T13:34:38.315Z,2.42
2023-01-17T13:37:34.298Z,2.72
2023-01-17T13:40:26.045Z,2.60
2023-01-17T13:43:05.423Z,2.40
2023-01-17T13:45:37.849Z,2.50
2023-01-17T13:48:28.640Z,2.65
2023-01-17T13:51:00.611Z,2.28
2023-01-17T13:53:36.889Z,2.95
2023-01-17T13:56:14.206Z,2.38
2023-01-17T13:58:50.526Z,2.20
2023-01-17T14:01:23.349Z,2.50
2023-01-17T14:03:52.702Z,2.70
2023-01-17T14:06:46.113Z,2.55
2023-01-17T14:09:12.613Z,2.50
2023-01-17T14:12:01.664Z,2.80
2023-01-17T14:14:40.318Z,2.70
2023-01-17T14:17:16.005Z,2.45
2023-01-17T14:19:46.343Z,2.60
2023-01-17T14:22:18.804Z,2.90
2023-01-17T14:25:10.145Z,2.20
2023-01-17T14:27:48.332Z,2.45
2023-01-17T14:30:38.155Z,2.72
2023-01-17T14:33:19.366Z,2.83
2023-01-17T14:35:56.102Z,3.15
2023-01-17T14:38:25.296Z,2.67
2023-01-17T14:41:13.167Z,2.40
2023-01-17T14:43:42.452Z,2.80
2023-01-17T14:46:18.818Z,3.63
2023-01-17T14:48:46.203Z,2.85
2023-01-17T14:51:14.956Z,2.97
2023-01-17T14:53:53.387Z,2.85
2023-01-17T14:56:20.078Z,2.67
2023-01-17T14:58:46.771Z,2.17
2023-01-17T15:01:15.574Z,2.60
2023-01-17T15:03:47.083Z,2.65
2023-01-17T15:06:40.463Z,2.90
2023-01-17T15:09:18.163Z,3.00
2023-01-17T15:11:47.821Z,3.03
2023-01-17T15:14:28.316Z,3.35
2023-01-17T15:16:55.059Z,3.30
2023-01-17T15:19:22.452Z,3.53
2023-01-17T15:21:52.071Z,3.53
2023-01-17T15:24:34.533Z,3.47
2023-01-17T15:27:01.928Z,4.25
2023-01-17T15:29:32.263Z,3.50
2023-01-17T15:32:01.352Z,3.83
2023-01-17T15:34:31.128Z,3.97
2023-01-17T15:37:01.460Z,4.03
2023-01-17T15:39:31.907Z,3.50
2023-01-17T15:42:01.805Z,3.38
2023-01-17T15:44:46.421Z,4.55
2023-01-17T15:47:34.078Z,3.75
2023-01-17T15:50:18.726Z,3.85
2023-01-17T15:52:49.993Z,3.67
2023-01-17T15:55:26.133Z,4.43
2023-01-17T16:00:24.156Z,3.53
2023-01-17T16:02:55.539Z,3.47
2023-01-17T16:05:22.622Z,4.10
2023-01-17T16:07:51.098Z,3.67
2023-01-17T16:10:28.897Z,3.80
2023-01-17T16:12:56.357Z,3.78
2023-01-17T16:15:23.792Z,4.18
2023-01-17T16:17:53.571Z,3.10
2023-01-17T16:20:25.415Z,3.78
2023-01-17T16:22:52.588Z,2.85
2023-01-17T16:25:22.224Z,3.60
2023-01-17T16:27:49.976Z,3.88
2023-01-17T16:30:19.905Z,4.30
2023-01-17T16:32:51.229Z,4.43
2023-01-17T16:35:25.700Z,4.18
2023-01-17T16:37:58.506Z,3.78
2023-01-17T16:40:28.301Z,4.35
2023-01-17T16:42:59.098Z,5.85
2023-01-17T16:45:26.441Z,4.50
2023-01-17T16:47:54.499Z,4.45
2023-01-17T16:50:24.206Z,4.65
2023-01-17T16:52:52.425Z,3.88
2023-01-17T16:55:24.371Z,4.15
2023-01-17T16:57:52.548Z,5.28
2023-01-17T17:00:20.014Z,5.85
2023-01-17T17:02:50.903Z,6.28
2023-01-17T17:05:17.659Z,6.15
2023-01-17T17:07:45.629Z,5.50
2023-01-17T17:10:14.962Z,4.60
2023-01-17T17:12:41.649Z,4.65
2023-01-17T17:15:09.635Z,5.43
2023-01-17T17:17:37.641Z,6.95
2023-01-17T17:20:05.326Z,7.78
2023-01-17T17:22:32.551Z,7.68
2023-01-17T17:24:59.306Z,7.85
2023-01-17T17:27:27.897Z,6.82
2023-01-17T17:29:55.091Z,7.55
2023-01-17T17:32:21.899Z,7.95
2023-01-17T17:34:50.862Z,7.32
2023-01-17T17:37:17.940Z,9.32
2023-01-17T17:39:45.386Z,8.77
2023-01-17T17:42:12.645Z,10.18
2023-01-17T17:44:39.227Z,10.20
2023-01-17T17:47:05.801Z,8.48
2023-01-17T17:49:32.386Z,8.65
2023-01-17T17:52:09.060Z,4.85
2023-01-17T17:54:36.925Z,4.85
2023-01-17T17:57:03.707Z,4.93
2023-01-17T17:59:31.254Z,5.72
2023-01-17T18:02:00.536Z,6.47
2023-01-17T18:04:27.287Z,5.20
2023-01-17T18:06:57.840Z,4.60
2023-01-17T18:09:24.373Z,6.38
2023-01-17T18:11:51.021Z,6.75
2023-01-17T18:14:20.949Z,6.68
2023-01-17T18:16:48.036Z,5.55
2023-01-17T18:19:18.337Z,6.18
2023-01-17T18:21:45.133Z,8.90
2023-01-17T18:24:16.794Z,13.63
2023-01-17T18:26:48.605Z,15.27
2023-01-17T18:29:16.561Z,17.98
2023-01-17T18:31:45.050Z,16.77
2023-01-17T18:34:14.502Z,14.32
2023-01-17T18:36:44.463Z,10.35
2023-01-17T18:39:16.261Z,9.27
2023-01-17T18:41:43.364Z,5.07
2023-01-17T18:44:10.434Z,5.97
2023-01-17T18:46:37.618Z,8.38
2023-01-17T18:49:05.084Z,8.50
2023-01-17T18:51:33.479Z,8.15
2023-01-17T18:54:05.324Z,8.50
2023-01-17T18:56:36.664Z,14.38
2023-01-17T18:59:05.901Z,9.77
2023-01-17T19:01:35.910Z,10.48
2023-01-17T19:04:06.097Z,13.45
2023-01-17T19:06:36.080Z,14.23
2023-01-17T19:09:03.959Z,12.98
2023-01-17T19:11:30.764Z,12.55
2023-01-17T19:13:57.508Z,11.32
2023-01-17T19:16:28.150Z,10.43
2023-01-17T19:18:56.985Z,11.00
2023-01-17T19:21:26.186Z,12.40
2023-01-17T19:23:53.931Z,13.25
2023-01-17T19:26:22.912Z,13.77
2023-01-17T19:28:50.347Z,13.68
2023-01-17T19:31:22.332Z,16.77
2023-01-17T19:33:51.151Z,18.13
2023-01-17T19:36:24.018Z,10.60
2023-01-17T19:39:03.462Z,12.88
2023-01-17T19:41:31.382Z,18.50
2023-01-17T19:44:00.280Z,16.85
2023-01-17T19:46:27.701Z,17.65
2023-01-17T19:48:56.182Z,20.40
2023-01-17T19:51:23.841Z,21.35
2023-01-17T19:53:50.786Z,22.00
2023-01-17T19:56:19.773Z,14.00
2023-01-17T19:58:48.022Z,19.15
2023-01-17T20:01:17.572Z,18.95
2023-01-17T20:03:45.735Z,19.15
2023-01-17T20:06:16.278Z,20.23
2023-01-17T20:08:43.628Z,18.65
2023-01-17T20:11:16.176Z,17.52
2023-01-17T20:13:42.894Z,18.52
2023-01-17T20:16:12.167Z,17.35
2023-01-17T20:18:38.745Z,17.63
2023-01-17T20:21:10.310Z,20.40
2023-01-17T20:23:38.918Z,24.33
2023-01-17T20:26:06.662Z,22.92
2023-01-17T20:28:35.110Z,21.15
2023-01-17T20:31:13.492Z,15.77
2023-01-17T20:33:41.876Z,24.85
2023-01-17T20:36:11.459Z,17.77
2023-01-17T20:38:45.311Z,22.60
2023-01-17T20:41:19.206Z,22.65
2023-01-17T20:43:48.436Z,23.00
2023-01-17T20:46:15.866Z,22.55
2023-01-17T20:48:47.539Z,25.77
2023-01-17T20:51:15.094Z,21.98
2023-01-17T20:53:43.987Z,20.25
2023-01-17T20:56:12.307Z,20.92
2023-01-17T20:58:40.781Z,19.15
2023-01-17T21:01:09.988Z,19.55
2023-01-17T21:03:38.355Z,18.98
2023-01-17T21:06:08.087Z,18.05
2023-01-17T21:08:37.109Z,18.60
2023-01-17T21:11:04.897Z,18.33
2023-01-17T21:13:33.013Z,19.35
2023-01-17T21:16:00.388Z,19.05
2023-01-17T21:18:29.516Z,16.55
2023-01-17T21:21:07.689Z,19.30
2023-01-17T21:23:35.958Z,17.85
2023-01-17T21:26:03.075Z,17.35
2023-01-17T21:28:33.856Z,16.90
2023-01-17T21:31:00.998Z,16.92
2023-01-17T21:33:29.517Z,16.45
2023-01-17T21:36:07.809Z,19.17
2023-01-17T21:38:34.340Z,19.55
2023-01-17T21:41:00.921Z,18.55
2023-01-17T21:43:27.387Z,17.85
2023-01-17T21:45:54.620Z,20.17
2023-01-17T21:48:21.308Z,18.48
2023-01-17T21:50:47.848Z,20.15
2023-01-17T21:53:14.355Z,19.55
2023-01-17T21:55:59.627Z,20.83
2023-01-17T21:58:44.321Z,13.90
2023-01-17T22:01:18.440Z,15.18
2023-01-17T22:03:57.532Z,15.88
2023-01-17T22:06:32.115Z,17.63
2023-01-17T22:08:59.323Z,15.20
2023-01-17T22:11:27.641Z,18.27
2023-01-17T22:13:54.446Z,16.65
2023-01-17T22:16:24.195Z,18.48
2023-01-17T22:18:51.251Z,17.95
2023-01-17T22:21:23.683Z,16.00
2023-01-17T22:23:52.946Z,17.98
2023-01-17T22:26:21.321Z,19.23
2023-01-17T22:28:48.204Z,18.83
2023-01-17T22:31:24.862Z,20.83
2023-01-17T22:33:57.122Z,22.85
2023-01-17T22:36:24.430Z,21.33
2023-01-17T22:38:51.560Z,21.27
2023-01-17T22:41:21.645Z,18.35
2023-01-17T22:43:50.241Z,19.25
2023-01-17T22:46:19.932Z,20.55
2023-01-17T22:48:47.049Z,17.58
2023-01-17T22:51:15.959Z,19.63
2023-01-17T22:53:48.031Z,19.92
2023-01-17T22:56:17.083Z,18.25
2023-01-17T22:58:48.804Z,18.27
2023-01-17T23:01:19.422Z,19.70
2023-01-17T23:03:52.210Z,18.48
2023-01-17T23:06:25.682Z,23.90
2023-01-17T23:08:54.596Z,20.63
2023-01-17T23:11:41.296Z,21.00
2023-01-17T23:14:13.782Z,21.92
2023-01-17T23:17:03.046Z,12.85
2023-01-17T23:19:33.061Z,19.30
2023-01-17T23:22:16.497Z,16.33
2023-01-17T23:25:04.029Z,18.45
2023-01-17T23:28:01.183Z,19.98
2023-01-17T23:32:58.372Z,22.20
2023-01-17T23:35:27.609Z,17.70
2023-01-17T23:38:13.383Z,17.75
2023-01-17T23:40:40.655Z,11.40
2023-01-17T23:43:24.986Z,12.48
2023-01-17T23:45:53.713Z,17.20
2023-01-17T23:48:21.984Z,15.50
2023-01-17T23:50:48.794Z,16.55
2023-01-17T23:53:23.447Z,14.50
2023-01-17T23:55:52.358Z,13.02
2023-01-17T23:58:21.021Z,15.07
